Time;durP1;ratioP1;P1;durP2;ratioP2;P2;SDS_P1;SDS_P2;PMS_P1;PMS_P2;Temp;Humidity;BMP_temperature;BMP_pressure;BME280_temperature;BME280_humidity;BME280_pressure;Samples;Min_cycle;Max_cycle;Signal;HPM_P1;HPM_P2
2023/10/19 00:00:44;;;;;;;30.50;28.88;;;;;;;;;;4978984;28;20464;-61
2023/10/19 00:03:12;;;;;;;28.92;27.33;;;;;;;;;;4981922;28;20372;-60
2023/10/19 00:05:38;;;;;;;33.75;31.85;;;;;;;;;;4979268;28;20042;-60
2023/10/19 00:08:17;;;;;;;32.65;30.75;;;;;;;;;;4978190;28;20751;-60
2023/10/19 00:10:47;;;;;;;30.58;28.83;;;;;;;;;;4979917;28;20371;-61
2023/10/19 00:13:14;;;;;;;30.43;28.73;;;;;;;;;;4981393;28;20575;-61
2023/10/19 00:15:48;;;;;;;33.42;31.50;;;;;;;;;;4967983;28;20285;-60
2023/10/19 00:23:18;;;;;;;29.90;28.30;;;;;;;;;;4976809;28;20037;-60
2023/10/19 00:25:49;;;;;;;27.42;25.95;;;;;;;;;;4981674;28;20042;-60
2023/10/19 00:28:17;;;;;;;32.53;30.10;;;;;;;;;;4978230;28;20642;-60
2023/10/19 00:30:43;;;;;;;31.38;29.70;;;;;;;;;;4980315;28;20474;-60
2023/10/19 00:33:30;;;;;;;30.63;28.92;;;;;;;;;;4979463;28;20146;-60
2023/10/19 00:36:07;;;;;;;27.23;25.73;;;;;;;;;;4979919;28;20062;-60
2023/10/19 00:41:06;;;;;;;28.38;26.67;;;;;;;;;;4978576;28;20444;-60
2023/10/19 00:43:45;;;;;;;27.63;26.13;;;;;;;;;;4980113;28;20104;-60
2023/10/19 00:48:45;;;;;;;28.45;26.88;;;;;;;;;;4980891;28;20491;-60
2023/10/19 00:51:26;;;;;;;31.95;30.05;;;;;;;;;;4983091;28;20034;-60
2023/10/19 00:53:54;;;;;;;28.02;26.48;;;;;;;;;;4979941;28;20049;-61
2023/10/19 00:56:23;;;;;;;29.13;27.42;;;;;;;;;;4981912;28;20121;-61
2023/10/19 00:58:53;;;;;;;28.80;27.20;;;;;;;;;;4982302;28;20454;-61
2023/10/19 01:01:24;;;;;;;27.50;26.00;;;;;;;;;;4981116;28;20065;-61
2023/10/19 01:03:56;;;;;;;29.05;27.48;;;;;;;;;;4980612;28;20751;-61
2023/10/19 01:06:25;;;;;;;29.75;28.15;;;;;;;;;;4979681;28;20085;-61
2023/10/19 01:08:51;;;;;;;28.85;27.27;;;;;;;;;;4977995;28;20030;-61
2023/10/19 01:11:21;;;;;;;28.35;26.80;;;;;;;;;;4982299;28;20030;-60
2023/10/19 01:13:48;;;;;;;28.80;27.20;;;;;;;;;;4981499;28;20041;-61
2023/10/19 01:16:23;;;;;;;27.88;26.40;;;;;;;;;;4981042;28;20132;-60
2023/10/19 01:18:54;;;;;;;28.63;27.00;;;;;;;;;;4981128;28;20038;-60
2023/10/19 01:21:25;;;;;;;30.02;28.40;;;;;;;;;;4979387;28;20341;-61
2023/10/19 01:23:50;;;;;;;30.33;28.67;;;;;;;;;;4977963;28;20364;-60
2023/10/19 01:26:25;;;;;;;29.45;27.88;;;;;;;;;;4980976;28;20038;-61
2023/10/19 01:29:00;;;;;;;31.38;29.58;;;;;;;;;;4980528;28;20018;-61
2023/10/19 01:33:56;;;;;;;30.70;29.00;;;;;;;;;;4980098;28;20104;-61
2023/10/19 01:36:24;;;;;;;30.02;28.42;;;;;;;;;;4982637;28;20023;-61
2023/10/19 01:38:55;;;;;;;29.60;28.00;;;;;;;;;;4979399;28;20468;-61
2023/10/19 01:41:22;;;;;;;30.00;28.35;;;;;;;;;;4977984;28;20616;-61
2023/10/19 01:43:49;;;;;;;32.05;30.10;;;;;;;;;;4978763;28;20074;-61
2023/10/19 01:46:24;;;;;;;30.58;28.67;;;;;;;;;;4979725;28;20067;-61
2023/10/19 01:48:55;;;;;;;29.08;27.45;;;;;;;;;;4982353;28;20038;-61
2023/10/19 01:51:23;;;;;;;27.17;25.63;;;;;;;;;;4980534;28;20105;-61
2023/10/19 01:53:48;;;;;;;28.33;26.67;;;;;;;;;;4980338;28;20145;-61
2023/10/19 01:56:16;;;;;;;28.27;26.67;;;;;;;;;;4977102;28;20122;-61
2023/10/19 01:58:44;;;;;;;29.98;28.25;;;;;;;;;;4983222;28;20045;-61
2023/10/19 02:03:42;;;;;;;29.75;28.15;;;;;;;;;;4983065;28;20129;-61
2023/10/19 02:06:17;;;;;;;29.40;27.70;;;;;;;;;;4980228;28;20026;-61
2023/10/19 02:08:51;;;;;;;30.77;29.13;;;;;;;;;;4978032;28;20034;-61
2023/10/19 02:11:21;;;;;;;30.17;28.35;;;;;;;;;;4979456;28;20479;-61
2023/10/19 02:13:49;;;;;;;29.83;28.10;;;;;;;;;;4978727;28;20046;-61
2023/10/19 02:16:16;;;;;;;30.08;28.35;;;;;;;;;;4979056;28;20030;-61
2023/10/19 02:18:43;;;;;;;28.30;26.75;;;;;;;;;;4980832;28;20126;-61
2023/10/19 02:21:11;;;;;;;29.08;27.45;;;;;;;;;;4980411;28;20162;-61
2023/10/19 02:23:44;;;;;;;32.45;30.58;;;;;;;;;;4979124;28;20109;-61
2023/10/19 02:26:12;;;;;;;28.95;27.35;;;;;;;;;;4977796;28;20070;-61
2023/10/19 02:28:39;;;;;;;30.20;28.13;;;;;;;;;;4981133;28;20074;-61
2023/10/19 02:31:15;;;;;;;29.60;27.98;;;;;;;;;;4980678;28;20066;-61
2023/10/19 02:33:45;;;;;;;29.25;27.60;;;;;;;;;;4980340;28;20623;-61
2023/10/19 02:36:12;;;;;;;34.08;32.13;;;;;;;;;;4981000;28;20030;-61
2023/10/19 02:38:39;;;;;;;36.72;34.78;;;;;;;;;;4996061;28;20455;-61
2023/10/19 02:41:04;;;;;;;37.03;34.92;;;;;;;;;;4977267;28;20034;-63
2023/10/19 02:43:32;;;;;;;39.05;36.88;;;;;;;;;;4978871;28;20033;-61
2023/10/19 02:45:59;;;;;;;45.13;42.70;;;;;;;;;;4977065;28;20050;-61
2023/10/19 02:48:25;;;;;;;38.38;36.33;;;;;;;;;;4978538;28;20037;-61
2023/10/19 02:50:50;;;;;;;42.22;39.80;;;;;;;;;;4980462;28;20142;-61
2023/10/19 02:53:18;;;;;;;44.15;41.67;;;;;;;;;;4978374;28;20082;-61
2023/10/19 02:55:44;;;;;;;45.33;42.42;;;;;;;;;;4979701;28;20034;-61
2023/10/19 02:58:09;;;;;;;39.08;37.03;;;;;;;;;;4981545;28;20060;-62
2023/10/19 03:00:37;;;;;;;41.67;37.97;;;;;;;;;;4982353;28;20026;-61
2023/10/19 03:03:05;;;;;;;39.90;37.67;;;;;;;;;;4981297;28;20026;-62
2023/10/19 03:05:31;;;;;;;40.53;38.35;;;;;;;;;;4981441;28;20038;-61
2023/10/19 03:07:56;;;;;;;47.08;44.53;;;;;;;;;;4980228;28;20045;-61
2023/10/19 03:10:34;;;;;;;48.92;46.42;;;;;;;;;;4980320;28;20038;-61
2023/10/19 03:13:01;;;;;;;51.83;49.00;;;;;;;;;;4979418;28;20062;-62
2023/10/19 03:15:30;;;;;;;50.00;47.33;;;;;;;;;;4976337;28;20371;-61
2023/10/19 03:17:55;;;;;;;52.28;49.45;;;;;;;;;;4979556;28;20125;-61
2023/10/19 03:20:24;;;;;;;55.50;52.50;;;;;;;;;;4980494;28;20512;-61
2023/10/19 03:22:49;;;;;;;54.28;51.35;;;;;;;;;;4983194;28;20126;-62
2023/10/19 03:28:08;;;;;;;41.40;39.17;;;;;;;;;;4982941;28;20050;-61
2023/10/19 03:30:38;;;;;;;44.53;42.13;;;;;;;;;;4983450;28;20038;-62
2023/10/19 03:33:05;;;;;;;47.30;44.80;;;;;;;;;;4982631;28;20104;-61
2023/10/19 03:35:30;;;;;;;51.92;48.92;;;;;;;;;;4982142;28;20038;-61
2023/10/19 03:37:58;;;;;;;49.28;46.55;;;;;;;;;;4983701;28;20081;-61
2023/10/19 03:40:33;;;;;;;50.60;47.20;;;;;;;;;;4982418;28;20119;-61
2023/10/19 03:42:59;;;;;;;42.90;40.28;;;;;;;;;;4980174;28;20034;-61
2023/10/19 03:45:25;;;;;;;38.28;36.13;;;;;;;;;;4985644;28;20034;-62
2023/10/19 03:47:53;;;;;;;40.85;37.95;;;;;;;;;;4982331;28;20035;-61
2023/10/19 03:50:22;;;;;;;40.55;38.25;;;;;;;;;;4980087;28;20341;-61
2023/10/19 03:52:47;;;;;;;42.50;40.25;;;;;;;;;;4979087;28;20046;-60
2023/10/19 03:55:18;;;;;;;42.55;40.22;;;;;;;;;;4980899;28;20668;-61
2023/10/19 03:57:47;;;;;;;43.25;40.45;;;;;;;;;;4982214;28;20422;-61
2023/10/19 04:00:16;;;;;;;42.20;39.90;;;;;;;;;;4982828;28;20410;-61
2023/10/19 04:02:42;;;;;;;40.10;37.95;;;;;;;;;;4984223;28;20120;-61
2023/10/19 04:05:10;;;;;;;39.42;37.35;;;;;;;;;;4981820;28;20691;-61
2023/10/19 04:07:35;;;;;;;45.60;43.10;;;;;;;;;;4982562;28;20088;-61
2023/10/19 04:10:09;;;;;;;51.85;49.00;;;;;;;;;;4981620;28;20558;-61
2023/10/19 04:12:42;;;;;;;44.78;42.42;;;;;;;;;;4980810;28;20042;-61
2023/10/19 04:17:38;;;;;;;41.20;39.00;;;;;;;;;;4980154;28;20638;-61
2023/10/19 04:20:20;;;;;;;42.30;40.00;;;;;;;;;;4982579;28;20117;-61
2023/10/19 04:22:50;;;;;;;37.50;35.35;;;;;;;;;;4978120;28;20125;-61
2023/10/19 04:25:18;;;;;;;37.33;35.33;;;;;;;;;;4978922;28;20056;-61
2023/10/19 04:27:44;;;;;;;41.97;39.40;;;;;;;;;;4980375;28;20452;-61
2023/10/19 04:30:15;;;;;;;42.92;40.65;;;;;;;;;;4979802;28;20049;-60
2023/10/19 04:32:42;;;;;;;48.67;45.88;;;;;;;;;;4979284;28;20042;-61
2023/10/19 04:35:09;;;;;;;42.33;39.10;;;;;;;;;;4980368;28;20130;-61
2023/10/19 04:37:35;;;;;;;37.08;34.97;;;;;;;;;;4981008;28;20049;-61
2023/10/19 04:40:00;;;;;;;45.28;42.83;;;;;;;;;;4980568;28;20034;-61
2023/10/19 04:42:27;;;;;;;39.30;37.13;;;;;;;;;;4980480;28;20018;-61
2023/10/19 04:44:54;;;;;;;37.55;35.08;;;;;;;;;;4982999;28;20372;-61
2023/10/19 04:47:19;;;;;;;37.65;35.50;;;;;;;;;;4982780;28;20030;-60
2023/10/19 04:49:45;;;;;;;40.58;38.30;;;;;;;;;;4979007;28;20176;-61
2023/10/19 04:52:10;;;;;;;38.88;36.63;;;;;;;;;;4979849;28;20122;-61
2023/10/19 04:54:37;;;;;;;39.67;37.35;;;;;;;;;;4978676;28;20034;-61
2023/10/19 04:57:03;;;;;;;40.22;37.90;;;;;;;;;;4979396;28;20078;-60
2023/10/19 04:59:32;;;;;;;45.15;42.70;;;;;;;;;;4983193;28;20439;-61
2023/10/19 05:01:58;;;;;;;37.88;35.85;;;;;;;;;;4979459;28;20034;-61
2023/10/19 05:04:24;;;;;;;38.17;35.75;;;;;;;;;;4982788;28;20052;-61
2023/10/19 05:06:49;;;;;;;43.92;41.40;;;;;;;;;;4980690;28;20045;-60
2023/10/19 05:09:15;;;;;;;43.28;40.97;;;;;;;;;;4982588;28;20062;-60
2023/10/19 05:11:40;;;;;;;42.95;40.58;;;;;;;;;;4982527;28;20066;-61
2023/10/19 05:14:06;;;;;;;41.40;39.17;;;;;;;;;;4981722;28;20030;-61
2023/10/19 05:16:31;;;;;;;41.45;39.10;;;;;;;;;;4979827;28;20062;-60
2023/10/19 05:18:56;;;;;;;45.45;42.95;;;;;;;;;;4981129;28;20042;-60
2023/10/19 05:21:22;;;;;;;42.65;40.38;;;;;;;;;;4983535;28;20081;-60
2023/10/19 05:23:47;;;;;;;42.95;40.55;;;;;;;;;;4981314;28;20511;-61
2023/10/19 05:26:14;;;;;;;44.25;41.67;;;;;;;;;;4979181;28;20677;-61
2023/10/19 05:28:42;;;;;;;48.42;44.58;;;;;;;;;;4978170;28;20101;-61
2023/10/19 05:31:08;;;;;;;48.92;46.28;;;;;;;;;;4978070;28;20030;-61
2023/10/19 05:33:33;;;;;;;48.75;46.08;;;;;;;;;;4978760;28;20107;-60
2023/10/19 05:36:01;;;;;;;44.67;42.30;;;;;;;;;;4979399;28;20494;-61
2023/10/19 05:38:27;;;;;;;47.65;44.45;;;;;;;;;;4980219;28;20373;-61
2023/10/19 05:40:52;;;;;;;50.75;47.88;;;;;;;;;;4978493;28;20038;-61
2023/10/19 05:43:18;;;;;;;48.75;46.05;;;;;;;;;;4978685;28;20122;-61
2023/10/19 05:45:43;;;;;;;46.78;44.25;;;;;;;;;;4981766;28;20049;-61
2023/10/19 05:48:09;;;;;;;46.78;44.15;;;;;;;;;;4979166;28;20092;-61
2023/10/19 05:50:35;;;;;;;42.10;39.22;;;;;;;;;;4978300;28;20664;-60
2023/10/19 05:53:05;;;;;;;43.75;41.30;;;;;;;;;;4978804;28;20364;-60
2023/10/19 05:55:31;;;;;;;56.38;53.35;;;;;;;;;;4980928;28;20038;-61
2023/10/19 05:57:56;;;;;;;48.88;46.25;;;;;;;;;;4980601;28;20023;-61
2023/10/19 06:00:25;;;;;;;48.72;45.78;;;;;;;;;;4979699;28;20038;-61
2023/10/19 06:02:51;;;;;;;43.33;41.00;;;;;;;;;;4978574;28;20430;-61
2023/10/19 06:05:18;;;;;;;49.75;46.97;;;;;;;;;;4977994;28;20038;-61
2023/10/19 06:07:48;;;;;;;56.58;53.40;;;;;;;;;;4979251;28;20034;-61
2023/10/19 06:10:20;;;;;;;43.38;40.97;;;;;;;;;;4979049;28;20452;-61
2023/10/19 06:12:46;;;;;;;42.78;40.35;;;;;;;;;;4977537;28;20066;-61
2023/10/19 06:15:13;;;;;;;44.08;41.55;;;;;;;;;;4977359;28;20034;-61
2023/10/19 06:17:42;;;;;;;41.42;39.10;;;;;;;;;;4976638;28;20414;-61
2023/10/19 06:20:19;;;;;;;42.35;40.00;;;;;;;;;;4976721;28;20586;-61
2023/10/19 06:22:49;;;;;;;42.75;40.40;;;;;;;;;;4978262;28;20126;-62
2023/10/19 06:25:17;;;;;;;41.28;38.90;;;;;;;;;;4976278;28;20085;-61
2023/10/19 06:27:43;;;;;;;40.15;37.75;;;;;;;;;;4959459;28;20030;-61
2023/10/19 06:30:10;;;;;;;40.17;37.88;;;;;;;;;;4980631;28;20041;-60
2023/10/19 06:32:36;;;;;;;40.15;37.15;;;;;;;;;;4980046;28;20484;-60
2023/10/19 06:35:01;;;;;;;38.78;36.33;;;;;;;;;;4979304;28;20409;-60
2023/10/19 06:37:27;;;;;;;41.75;39.15;;;;;;;;;;4977340;28;20425;-61
2023/10/19 06:39:52;;;;;;;43.20;40.72;;;;;;;;;;4981043;28;20064;-61
2023/10/19 06:42:18;;;;;;;39.63;37.42;;;;;;;;;;4978230;28;20134;-61
2023/10/19 06:44:43;;;;;;;36.55;34.55;;;;;;;;;;4976231;28;20364;-61
2023/10/19 06:47:10;;;;;;;42.53;40.28;;;;;;;;;;4974508;28;20038;-62
2023/10/19 06:49:35;;;;;;;43.83;41.35;;;;;;;;;;4979844;28;20048;-62
2023/10/19 06:52:01;;;;;;;47.55;44.67;;;;;;;;;;4982143;28;20026;-61
2023/10/19 06:54:27;;;;;;;40.95;38.58;;;;;;;;;;4982389;28;20164;-61
2023/10/19 06:56:53;;;;;;;37.22;35.15;;;;;;;;;;4983781;28;20046;-61
2023/10/19 06:59:18;;;;;;;38.70;36.30;;;;;;;;;;4978727;28;20036;-61
2023/10/19 07:01:44;;;;;;;40.40;37.90;;;;;;;;;;4983689;28;20122;-61
2023/10/19 07:04:09;;;;;;;38.13;35.90;;;;;;;;;;4982177;28;20044;-61
2023/10/19 07:06:35;;;;;;;42.28;39.75;;;;;;;;;;4979413;28;20038;-61
2023/10/19 07:09:03;;;;;;;40.85;38.65;;;;;;;;;;4978658;28;20061;-61
2023/10/19 07:11:29;;;;;;;41.40;39.15;;;;;;;;;;4979631;28;20097;-61
2023/10/19 07:13:54;;;;;;;49.13;46.03;;;;;;;;;;4978970;28;20133;-60
2023/10/19 07:16:20;;;;;;;44.15;41.65;;;;;;;;;;4982100;28;20500;-62
2023/10/19 07:18:46;;;;;;;40.63;38.00;;;;;;;;;;4981080;28;20453;-61
2023/10/19 07:21:12;;;;;;;37.90;35.70;;;;;;;;;;4981366;28;20035;-61
2023/10/19 07:23:38;;;;;;;39.80;37.38;;;;;;;;;;4980989;28;20429;-61
2023/10/19 07:26:03;;;;;;;44.53;42.13;;;;;;;;;;4980556;28;20050;-61
2023/10/19 07:28:29;;;;;;;41.08;38.80;;;;;;;;;;4980285;28;20046;-61
2023/10/19 07:30:55;;;;;;;43.80;41.33;;;;;;;;;;4981547;28;20038;-61
2023/10/19 07:33:21;;;;;;;44.90;42.50;;;;;;;;;;4982489;28;20023;-61
2023/10/19 07:35:52;;;;;;;48.55;45.85;;;;;;;;;;4983016;28;20382;-61
2023/10/19 07:38:21;;;;;;;44.97;42.40;;;;;;;;;;4984105;28;20030;-61
2023/10/19 07:40:46;;;;;;;40.50;38.17;;;;;;;;;;4978098;28;20349;-61
2023/10/19 07:43:12;;;;;;;39.80;37.42;;;;;;;;;;4983500;28;20037;-61
2023/10/19 07:45:37;;;;;;;43.53;41.05;;;;;;;;;;4979192;28;20039;-61
2023/10/19 07:48:08;;;;;;;43.92;41.35;;;;;;;;;;4979480;28;20108;-61
2023/10/19 07:50:36;;;;;;;43.25;40.88;;;;;;;;;;4979797;28;20038;-61
2023/10/19 07:53:02;;;;;;;41.55;39.25;;;;;;;;;;4979778;28;20456;-61
2023/10/19 07:55:28;;;;;;;39.30;36.95;;;;;;;;;;4982154;28;20045;-61
2023/10/19 07:57:54;;;;;;;43.08;40.70;;;;;;;;;;4979328;28;20056;-61
2023/10/19 08:00:21;;;;;;;38.78;36.60;;;;;;;;;;4980212;28;20605;-62
2023/10/19 08:02:47;;;;;;;35.58;33.47;;;;;;;;;;4979419;28;20030;-61
2023/10/19 08:05:18;;;;;;;33.63;31.60;;;;;;;;;;4983073;28;20092;-61
2023/10/19 08:07:44;;;;;;;33.38;31.48;;;;;;;;;;4980098;28;20062;-61
2023/10/19 08:10:11;;;;;;;36.15;34.03;;;;;;;;;;4980925;28;20081;-61
2023/10/19 08:12:43;;;;;;;32.95;31.10;;;;;;;;;;4979705;28;20084;-61
2023/10/19 08:15:11;;;;;;;32.28;30.48;;;;;;;;;;4981005;28;20038;-61
2023/10/19 08:17:40;;;;;;;37.85;35.67;;;;;;;;;;4981145;28;20035;-62
2023/10/19 08:20:09;;;;;;;34.53;32.53;;;;;;;;;;4979055;28;20467;-62
2023/10/19 08:22:39;;;;;;;34.47;32.58;;;;;;;;;;4980933;28;20034;-61
2023/10/19 08:25:11;;;;;;;33.78;31.98;;;;;;;;;;4984331;28;20030;-61
2023/10/19 08:27:39;;;;;;;30.67;29.08;;;;;;;;;;4980148;28;20117;-62
2023/10/19 08:30:08;;;;;;;34.58;32.72;;;;;;;;;;4979866;28;20101;-62
2023/10/19 08:32:34;;;;;;;37.50;35.30;;;;;;;;;;4981169;28;20042;-61
2023/10/19 08:35:01;;;;;;;33.90;31.98;;;;;;;;;;4982518;28;20044;-61
2023/10/19 08:37:26;;;;;;;32.58;30.80;;;;;;;;;;4978830;28;20468;-62
2023/10/19 08:39:51;;;;;;;33.08;30.92;;;;;;;;;;4981058;28;20093;-62
2023/10/19 08:42:17;;;;;;;33.55;31.55;;;;;;;;;;4980558;28;20057;-62
2023/10/19 08:44:43;;;;;;;31.95;30.20;;;;;;;;;;4981310;28;20062;-62
2023/10/19 08:47:08;;;;;;;31.20;29.45;;;;;;;;;;4980207;28;20044;-62
2023/10/19 08:49:33;;;;;;;31.55;29.65;;;;;;;;;;4978223;28;20037;-62
2023/10/19 08:52:04;;;;;;;31.15;29.42;;;;;;;;;;4979806;28;20042;-62
2023/10/19 08:54:29;;;;;;;31.67;29.70;;;;;;;;;;4978776;28;20086;-62
2023/10/19 08:56:55;;;;;;;36.00;34.00;;;;;;;;;;4981335;28;20683;-62
2023/10/19 08:59:21;;;;;;;31.50;29.77;;;;;;;;;;4981963;28;20030;-62
2023/10/19 09:01:47;;;;;;;33.78;31.88;;;;;;;;;;4978698;28;20479;-62
2023/10/19 09:04:16;;;;;;;33.47;31.67;;;;;;;;;;4982524;28;20034;-62
2023/10/19 09:06:42;;;;;;;37.00;35.05;;;;;;;;;;4981562;28;20042;-62
2023/10/19 09:09:19;;;;;;;36.05;34.08;;;;;;;;;;4981292;28;20416;-63
2023/10/19 09:11:46;;;;;;;38.00;35.90;;;;;;;;;;4981663;28;20103;-63
2023/10/19 09:14:12;;;;;;;35.28;33.28;;;;;;;;;;4982506;28;20035;-62
2023/10/19 09:16:54;;;;;;;36.67;34.67;;;;;;;;;;4977659;28;20036;-62
2023/10/19 09:19:20;;;;;;;38.25;36.20;;;;;;;;;;4984190;28;20030;-62
2023/10/19 09:21:46;;;;;;;35.47;33.47;;;;;;;;;;4978389;28;20365;-62
2023/10/19 09:24:11;;;;;;;33.28;31.48;;;;;;;;;;4978522;28;20038;-62
2023/10/19 09:26:37;;;;;;;35.25;33.33;;;;;;;;;;4979457;28;20041;-62
2023/10/19 09:29:03;;;;;;;36.05;34.10;;;;;;;;;;4978763;28;20033;-62
2023/10/19 09:31:30;;;;;;;39.42;37.35;;;;;;;;;;4980673;28;20108;-62
2023/10/19 09:33:56;;;;;;;39.22;37.08;;;;;;;;;;4979223;28;20411;-61
2023/10/19 09:36:29;;;;;;;37.13;35.13;;;;;;;;;;5082605;27;20405;-62
2023/10/19 09:38:57;;;;;;;35.53;33.63;;;;;;;;;;5083917;28;20040;-62
2023/10/19 09:41:28;;;;;;;36.17;34.17;;;;;;;;;;5082646;28;20040;-62
2023/10/19 09:44:00;;;;;;;32.47;30.52;;;;;;;;;;5083277;28;20032;-61
2023/10/19 09:46:28;;;;;;;32.97;31.15;;;;;;;;;;5080772;28;20087;-62
2023/10/19 09:48:55;;;;;;;32.97;31.17;;;;;;;;;;5083014;28;20039;-65
2023/10/19 09:51:22;;;;;;;30.88;28.88;;;;;;;;;;5080764;28;20044;-62
2023/10/19 09:54:14;;;;;;;32.67;30.98;;;;;;;;;;5081980;28;20119;-62
2023/10/19 09:56:44;;;;;;;30.30;28.60;;;;;;;;;;5079768;28;20047;-62
2023/10/19 09:59:49;;;;;;;33.13;30.50;;;;;;;;;;5079729;28;20072;-64
2023/10/19 10:02:17;;;;;;;29.65;28.02;;;;;;;;;;5082646;28;20315;-64
2023/10/19 10:04:45;;;;;;;30.08;28.48;;;;;;;;;;5082071;28;20038;-64
2023/10/19 10:07:11;;;;;;;31.50;29.77;;;;;;;;;;5078530;28;20107;-64
2023/10/19 10:09:44;;;;;;;29.80;28.20;;;;;;;;;;5083188;28;20115;-64
2023/10/19 10:12:19;;;;;;;31.83;30.05;;;;;;;;;;5083572;28;20473;-64
2023/10/19 10:15:09;;;;;;;33.22;31.10;;;;;;;;;;5080345;28;20039;-64
2023/10/19 10:17:35;;;;;;;32.53;30.83;;;;;;;;;;5081368;28;20110;-64
2023/10/19 10:20:18;;;;;;;31.45;29.75;;;;;;;;;;5080517;28;20758;-64
2023/10/19 10:22:44;;;;;;;32.35;30.58;;;;;;;;;;5081419;28;20029;-63
2023/10/19 10:25:29;;;;;;;31.77;30.00;;;;;;;;;;5081645;28;20050;-62
2023/10/19 10:27:55;;;;;;;32.92;31.13;;;;;;;;;;5083198;28;20020;-63
2023/10/19 10:30:21;;;;;;;35.72;33.83;;;;;;;;;;5081197;28;20155;-63
2023/10/19 10:32:53;;;;;;;34.67;32.67;;;;;;;;;;5079055;28;20029;-64
2023/10/19 10:35:37;;;;;;;30.58;28.95;;;;;;;;;;5075397;28;20559;-64
2023/10/19 10:38:09;;;;;;;31.50;29.83;;;;;;;;;;5076572;28;20063;-63
2023/10/19 10:40:47;;;;;;;28.85;27.27;;;;;;;;;;5074866;28;20019;-64
2023/10/19 10:43:13;;;;;;;28.95;27.35;;;;;;;;;;5076994;28;20568;-64
2023/10/19 10:45:39;;;;;;;29.40;27.70;;;;;;;;;;5078816;28;20120;-64
2023/10/19 10:48:11;;;;;;;30.63;28.83;;;;;;;;;;5063773;28;20046;-63
2023/10/19 10:50:37;;;;;;;26.70;25.27;;;;;;;;;;5066869;28;20043;-63
2023/10/19 10:53:04;;;;;;;27.67;26.20;;;;;;;;;;5065185;28;20035;-64
2023/10/19 10:55:30;;;;;;;33.65;31.75;;;;;;;;;;5065470;28;20166;-64
2023/10/19 10:57:56;;;;;;;31.55;29.65;;;;;;;;;;5063245;28;20548;-64
2023/10/19 11:00:25;;;;;;;30.25;28.65;;;;;;;;;;5065929;28;20129;-63
2023/10/19 11:03:07;;;;;;;30.25;28.65;;;;;;;;;;5067247;28;20104;-64
2023/10/19 11:05:35;;;;;;;32.38;30.67;;;;;;;;;;5067596;28;20036;-64
2023/10/19 11:08:03;;;;;;;32.40;30.50;;;;;;;;;;5064493;28;20042;-64
2023/10/19 11:10:29;;;;;;;30.27;28.58;;;;;;;;;;5064836;28;20040;-64
2023/10/19 11:13:06;;;;;;;30.67;28.98;;;;;;;;;;5071116;28;20036;-64
2023/10/19 11:15:32;;;;;;;31.15;29.48;;;;;;;;;;5066978;28;20028;-64
2023/10/19 11:17:58;;;;;;;38.05;35.83;;;;;;;;;;5066939;28;20043;-64
2023/10/19 11:20:25;;;;;;;31.55;29.90;;;;;;;;;;5070184;28;20040;-63
2023/10/19 11:22:52;;;;;;;30.67;29.08;;;;;;;;;;5067866;28;20041;-63
2023/10/19 11:25:22;;;;;;;28.08;26.58;;;;;;;;;;5067495;28;20098;-63
2023/10/19 11:27:47;;;;;;;30.65;29.05;;;;;;;;;;5065912;28;20111;-63
2023/10/19 11:30:14;;;;;;;29.60;27.98;;;;;;;;;;5066443;28;20112;-63
2023/10/19 11:32:39;;;;;;;31.38;29.48;;;;;;;;;;5065045;28;20115;-63
2023/10/19 11:35:06;;;;;;;30.33;28.73;;;;;;;;;;5068718;28;20119;-63
2023/10/19 11:37:56;;;;;;;29.40;27.85;;;;;;;;;;5067653;28;20051;-63
2023/10/19 11:40:22;;;;;;;28.67;27.08;;;;;;;;;;5072414;28;20623;-63
2023/10/19 11:42:49;;;;;;;27.48;25.98;;;;;;;;;;5063712;28;20082;-63
2023/10/19 11:45:16;;;;;;;27.13;25.63;;;;;;;;;;5066499;28;20137;-63
2023/10/19 11:47:42;;;;;;;27.33;25.85;;;;;;;;;;5064819;28;20037;-63
2023/10/19 11:50:08;;;;;;;29.25;27.48;;;;;;;;;;5062728;28;20036;-62
2023/10/19 11:52:33;;;;;;;28.23;26.58;;;;;;;;;;5063989;28;20347;-63
2023/10/19 11:54:59;;;;;;;31.08;29.38;;;;;;;;;;5065289;28;20044;-62
2023/10/19 11:57:27;;;;;;;30.60;29.00;;;;;;;;;;5066841;28;20036;-63
2023/10/19 11:59:53;;;;;;;37.47;35.40;;;;;;;;;;5063596;28;20113;-63
2023/10/19 12:02:18;;;;;;;30.58;28.98;;;;;;;;;;5096699;27;20458;-63
2023/10/19 12:04:45;;;;;;;36.33;34.42;;;;;;;;;;5069024;28;20089;-63
2023/10/19 12:07:11;;;;;;;30.58;28.98;;;;;;;;;;5064252;28;20062;-63
2023/10/19 12:09:37;;;;;;;36.55;34.63;;;;;;;;;;5067408;28;20097;-63
2023/10/19 12:12:05;;;;;;;29.75;27.85;;;;;;;;;;5065046;28;20036;-64
2023/10/19 12:14:34;;;;;;;29.02;27.33;;;;;;;;;;5067248;28;20033;-64
2023/10/19 12:17:01;;;;;;;29.60;28.00;;;;;;;;;;5064342;28;20036;-64
2023/10/19 12:19:28;;;;;;;32.67;30.92;;;;;;;;;;5069598;28;20025;-64
2023/10/19 12:21:54;;;;;;;35.17;33.35;;;;;;;;;;5065991;28;20047;-64
2023/10/19 12:24:21;;;;;;;31.90;30.15;;;;;;;;;;5064214;28;20450;-64
2023/10/19 12:26:46;;;;;;;32.03;30.33;;;;;;;;;;5067926;28;20032;-64
2023/10/19 12:29:14;;;;;;;32.35;30.60;;;;;;;;;;5062098;28;20661;-64
2023/10/19 12:31:40;;;;;;;32.28;30.60;;;;;;;;;;5068297;28;20036;-64
2023/10/19 12:34:06;;;;;;;34.67;32.83;;;;;;;;;;5063702;28;20043;-64
2023/10/19 12:36:32;;;;;;;50.90;48.28;;;;;;;;;;5065555;28;20032;-63
2023/10/19 12:38:57;;;;;;;55.30;52.45;;;;;;;;;;5065390;28;20066;-63
2023/10/19 12:41:24;;;;;;;57.33;54.45;;;;;;;;;;5061263;28;20028;-64
2023/10/19 12:43:52;;;;;;;58.17;55.22;;;;;;;;;;5063535;28;20390;-63
2023/10/19 12:46:19;;;;;;;48.42;45.95;;;;;;;;;;5063328;28;20433;-63
2023/10/19 12:48:46;;;;;;;56.22;53.22;;;;;;;;;;5064635;28;20033;-62
2023/10/19 12:51:13;;;;;;;53.35;50.60;;;;;;;;;;5066638;28;20142;-63
2023/10/19 12:53:39;;;;;;;57.15;54.15;;;;;;;;;;5065258;28;20101;-63
2023/10/19 12:56:10;;;;;;;63.25;60.00;;;;;;;;;;5065676;28;20028;-63
2023/10/19 12:58:36;;;;;;;67.72;64.30;;;;;;;;;;5063787;28;20072;-63
2023/10/19 13:01:05;;;;;;;65.88;62.47;;;;;;;;;;5062767;28;20470;-65
2023/10/19 13:03:31;;;;;;;70.63;66.97;;;;;;;;;;5064716;28;20098;-63
2023/10/19 13:05:57;;;;;;;71.40;67.78;;;;;;;;;;5062886;28;20389;-62
2023/10/19 13:08:27;;;;;;;68.75;65.28;;;;;;;;;;5062531;28;20048;-62
2023/10/19 13:10:54;;;;;;;68.38;64.82;;;;;;;;;;5063891;28;20037;-62
2023/10/19 13:13:22;;;;;;;71.00;67.43;;;;;;;;;;5066106;28;20119;-62
2023/10/19 13:15:48;;;;;;;62.22;59.00;;;;;;;;;;5065695;28;20032;-62
2023/10/19 13:18:19;;;;;;;70.55;67.00;;;;;;;;;;5064295;28;20077;-62
2023/10/19 13:20:46;;;;;;;74.53;70.78;;;;;;;;;;5063302;28;20039;-61
2023/10/19 13:23:11;;;;;;;82.43;78.07;;;;;;;;;;5063860;28;20059;-61
2023/10/19 13:25:49;;;;;;;58.90;55.83;;;;;;;;;;5066091;28;20441;-61
2023/10/19 13:28:17;;;;;;;59.55;56.25;;;;;;;;;;5064125;28;20458;-61
2023/10/19 13:30:50;;;;;;;56.58;53.72;;;;;;;;;;5065516;28;20083;-61
2023/10/19 13:33:16;;;;;;;56.72;53.83;;;;;;;;;;5066951;28;20032;-61
2023/10/19 13:35:43;;;;;;;60.33;57.17;;;;;;;;;;5065502;28;20024;-63
2023/10/19 13:38:09;;;;;;;62.00;58.90;;;;;;;;;;5064269;28;20289;-62
2023/10/19 13:40:38;;;;;;;73.78;69.70;;;;;;;;;;5064402;28;20055;-63
2023/10/19 13:43:08;;;;;;;78.05;74.07;;;;;;;;;;5064469;28;20033;-62
2023/10/19 13:45:36;;;;;;;95.73;90.93;;;;;;;;;;5065177;28;20028;-62
2023/10/19 13:48:03;;;;;;;85.00;80.72;;;;;;;;;;5062854;28;20075;-63
2023/10/19 13:50:29;;;;;;;73.55;69.82;;;;;;;;;;5066147;28;20096;-62
2023/10/19 13:52:56;;;;;;;89.82;85.28;;;;;;;;;;5079641;28;20037;-62
2023/10/19 13:55:25;;;;;;;75.63;71.47;;;;;;;;;;5062976;28;20103;-62
2023/10/19 13:57:51;;;;;;;59.95;56.90;;;;;;;;;;5066730;28;20119;-63
2023/10/19 14:00:30;;;;;;;60.22;57.08;;;;;;;;;;5063471;28;20531;-63
2023/10/19 14:03:00;;;;;;;50.60;47.97;;;;;;;;;;5066875;28;20052;-64
2023/10/19 14:05:25;;;;;;;55.20;52.40;;;;;;;;;;5063633;28;20378;-63
2023/10/19 14:07:51;;;;;;;60.72;57.45;;;;;;;;;;5062033;28;20047;-63
2023/10/19 14:10:19;;;;;;;65.47;62.08;;;;;;;;;;5065835;28;20465;-63
2023/10/19 14:12:46;;;;;;;66.13;62.78;;;;;;;;;;5067103;28;20108;-63
2023/10/19 14:15:17;;;;;;;65.88;62.53;;;;;;;;;;5068073;28;20029;-63
2023/10/19 14:17:45;;;;;;;66.90;63.47;;;;;;;;;;5065778;28;20062;-63
2023/10/19 14:20:15;;;;;;;59.42;56.38;;;;;;;;;;5065168;28;20035;-65
2023/10/19 14:22:41;;;;;;;68.75;65.28;;;;;;;;;;5066267;28;20055;-63
2023/10/19 14:25:12;;;;;;;64.20;60.95;;;;;;;;;;5069167;28;20477;-63
2023/10/19 14:27:41;;;;;;;57.70;54.83;;;;;;;;;;5072542;28;20032;-63
2023/10/19 14:30:11;;;;;;;53.53;50.83;;;;;;;;;;5067096;28;20446;-64
2023/10/19 14:32:37;;;;;;;61.78;58.55;;;;;;;;;;5068453;28;20447;-63
2023/10/19 14:35:05;;;;;;;59.00;56.05;;;;;;;;;;5066333;28;20070;-63
2023/10/19 14:37:31;;;;;;;63.15;59.95;;;;;;;;;;5067027;28;20067;-64
2023/10/19 14:39:58;;;;;;;57.20;54.22;;;;;;;;;;5066862;28;20303;-63
2023/10/19 14:42:24;;;;;;;56.15;53.30;;;;;;;;;;5067788;28;20044;-63